METAR AND TAF INFORMATION
METAR FOR LSZA
ADDS - METARS form results

(1509 UTC 14 November 2019)
Data provider http://aviationweather.gov/metar/data/
 
METAR text: LSZA 141450Z VRB01KT 9999 VCSH FEW050 OVC070 07/00 Q1008 NOSIG
Conditions at: LSZA (LUGANO (PVT/AUT), CH) observed 1450 UTC 14 November 2019
Temperature: 7.0°C (45°F)
Dewpoint: 0.0°C (32°F) [RH = 61%]
Pressure (altimeter): 29.76 inches Hg (1008.0 mb)
Winds: variable direction winds at 1 MPH (1 knots; 0.5 m/s)
Visibility: 6 or more miles (10+ km)
Ceiling: 7000 feet AGL
Clouds: few clouds at 5000 feet AGL
overcast cloud deck at 7000 feet AGL
Weather: VCSH  (showers in vicinity)

METAR text: LSZA 141420Z 02002KT 9999 VCSH FEW050 OVC080 07/01 Q1008 NOSIG
Conditions at: LSZA (LUGANO (PVT/AUT), CH) observed 1420 UTC 14 November 2019
Temperature: 7.0°C (45°F)
Dewpoint: 1.0°C (34°F) [RH = 66%]
Pressure (altimeter): 29.76 inches Hg (1008.0 mb)
Winds: from the NNE (20 degrees) at 2 MPH (2 knots; 1.0 m/s)
Visibility: 6 or more miles (10+ km)
Ceiling: 8000 feet AGL
Clouds: few clouds at 5000 feet AGL
overcast cloud deck at 8000 feet AGL
Weather: VCSH  (showers in vicinity)

Forecast for: LSZA (LUGANO (PVT/AUT), CH)
Text: TAF LSZA 141425Z 1415/1424 VRB03KT 9999 FEW050 BKN070
Forecast period: 1500 to 2000 UTC 14 November 2019
Forecast type: FROM: standard forecast or significant change
Winds: variable direction winds at 3 MPH (3 knots; 1.5 m/s)
Visibility: 6 or more miles 10+ km)
Ceiling: 7000 feet AGL
Clouds: few clouds at 5000 feet AGL
broken clouds at 7000 feet AGL
Weather: no significant weather forecast for this period
Text: BECMG 1420/1423 RA
Forecast period: 2000 UTC 14 November 2019 to 0000 UTC 15 November 2019
Forecast type: BECOMING: Conditions expected to become as follows by 2300 UTC 14 November 2019
Winds: variable direction winds at 3 MPH (3 knots; 1.5 m/s)
Visibility: 6 or more miles 10+ km)
Ceiling: 7000 feet AGL
Clouds: few clouds at 5000 feet AGL
broken clouds at 7000 feet AGL
Weather: RA  (moderate rain)

 AIRPORT MAP

 RUNWAY INFORMATION
Runway 01 Runway length 4429 ft Runway width 98 ft
Runway elevation 896 ft Runway displaced threshold 361 ft Runway heading 19
Runway 19 Runway length 4429 ft Runway width 98 ft
Runway elevation 915 ft Runway displaced threshold 672 ft Runway heading 199

 AIRPORT FREQUENCIES
Type ATIS Name ATIS Frequency 121.175 MHZ
Type GND Name GND Frequency 121.775 MHZ
Type TWR Name TWR Frequency 120.25 MHZ

 AIRPORT NEAR NAVIGATION AIDS